• Join FlightAware (Why Join?)
  • Login
  • US Flag 
12:19AM EDT


 

Airport Tracker/Info


-or-


 

Live Flight TrackerFlight Track Log ✈ N624LL ✈ 02-May-2013 ✈ KSFZ - KPSM

Flight Track Log - Related Links

Times and Time Zones

All times are in EDT time to prevent confusion due to time zone crossing. See the N624LL flight status page for this flight to view local times or setup timezone preferences in your user account.

Time Position Orientation Groundspeed Altitude Reporting Facility
EDT Latitude Longitude Course Direction KTS MPH feet Rate Location/Type
06:51PM 41.9275 -71.4886 318° Northwest 86 99 900  Level Boston Center
06:52PM 41.9528 -71.5106 327° Northwest 107 123 2,000 1,020 Climbing Boston Center
06:54PM 42.0000 -71.4833 23° Northeast 100 115 4,300 1,020 Climbing KA90
06:55PM 42.1303 -71.7195 318° Northwest  Level FlightAware Approximate
06:55PM 42.0333 -71.4667 20° North 103 119 5,300  Level KA90
06:56PM 42.1657 -71.7619 318° Northwest  Level FlightAware Approximate
06:56PM 42.0500 -71.4500 37° Northeast 96 110 6,100  Level KA90
06:57PM 42.0833 -71.4333 20° North 96 110 7,000 420 Climbing KA90
06:58PM 42.1167 -71.4167 20° North 129 148 7,000  Level KA90
06:59PM 42.1500 -71.4000 20° North 130 150 7,000  Level KA90
07:00PM 42.1833 -71.3667 37° Northeast 132 152 7,000  Level KA90
07:01PM 42.2167 -71.3500 20° North 126 145 7,000  Level KA90
07:02PM 42.2333 -71.3333 37° Northeast 123 142 7,000  Level KA90
07:03PM 42.2667 -71.3167 20° North 125 144 7,000  Level KA90
07:04PM 42.3000 -71.3000 20° North 127 146 7,000  Level KA90
07:05PM 42.3333 -71.2833 20° North 127 146 7,000  Level KA90
07:06PM 42.3667 -71.2500 36° Northeast 128 147 7,000  Level KA90
07:07PM 42.4000 -71.2333 20° North 124 143 7,000  Level KA90
07:08PM 42.4333 -71.2167 20° North 124 143 7,000  Level KA90
07:09PM 42.4667 -71.2000 20° North 123 142 7,000  Level KA90
07:10PM 42.5000 -71.1833 20° North 123 142 7,000 -240 Level KA90
07:11PM 42.5333 -71.1667 20° North 132 152 6,500 -600 Descending KA90
07:12PM 42.5667 -71.1333 36° Northeast 129 148 5,900 -660 Descending KA90
07:14PM 42.6000 -71.1167 20° North 133 153 5,200 -660 Descending KA90
07:15PM 42.6333 -71.1000 20° North 135 155 4,600 -600 Descending KA90
07:16PM 42.6667 -71.0667 36° Northeast 141 162 4,000 -360 Descending KA90
07:17PM 42.7000 -71.0500 20° North 138 159 4,000  Level KA90
07:18PM 42.7333 -71.0333 20° North 129 148 4,000 -60 Level KA90
07:19PM 42.7667 -71.0167 20° North 128 147 3,900  Descending KA90
07:20PM 42.8000 -70.9833 36° Northeast 123 142 4,000  Climbing KA90
07:21PM 42.8333 -70.9667 20° North 124 143 4,000 -300 Level KA90
07:22PM 42.8667 -70.9500 20° North 131 151 3,500 -420 Descending KA90
07:23PM 42.9000 -70.9333 20° North 134 154 3,200 -360 Descending KA90
07:24PM 42.9333 -70.9167 20° North 131 151 2,800 -540 Descending KA90
07:25PM 42.9667 -70.9000 20° North 132 152 2,300 -600 Descending KA90
07:26PM 43.0000 -70.8833 20° North 142 163 1,800 -420 Descending KA90
07:27PM 43.0167 -70.8667 36° Northeast 104 120 1,500 -420 Descending KA90
07:28PM 43.0333 -70.8333 56° Northeast 90 104 900 -540 Descending KA90
07:30PM 43.0667 -70.8167 24° Northeast  Level FlightAware Approximate